createdAt,value
2022-12-01T00:01:06.207Z,81.50
2022-12-01T00:03:33.581Z,80.92
2022-12-01T00:06:00.914Z,81.32
2022-12-01T00:08:29.091Z,81.53
2022-12-01T00:10:56.243Z,82.22
2022-12-01T00:13:22.858Z,81.75
2022-12-01T00:15:49.461Z,81.44
2022-12-01T00:18:18.832Z,81.88
2022-12-01T00:20:45.416Z,81.52
2022-12-01T00:23:11.895Z,81.89
2022-12-01T00:25:38.403Z,82.50
2022-12-01T00:28:04.839Z,82.17
2022-12-01T00:30:31.295Z,82.53
2022-12-01T00:32:57.728Z,82.17
2022-12-01T00:35:24.191Z,82.57
2022-12-01T00:37:50.642Z,82.29
2022-12-01T00:40:17.276Z,82.42
2022-12-01T00:42:43.713Z,81.93
2022-12-01T00:45:10.907Z,81.78
2022-12-01T00:47:37.522Z,82.52
2022-12-01T00:50:04.264Z,82.14
2022-12-01T00:52:30.676Z,82.31
2022-12-01T00:54:57.113Z,82.47
2022-12-01T00:57:23.531Z,82.91
2022-12-01T00:59:50.487Z,82.32
2022-12-01T01:02:17.235Z,82.98
2022-12-01T01:04:43.938Z,83.06
2022-12-01T01:07:10.405Z,83.09
2022-12-01T01:09:37.290Z,82.49
2022-12-01T01:12:03.874Z,82.49
2022-12-01T01:14:30.323Z,82.58
2022-12-01T01:16:56.850Z,82.44
2022-12-01T01:19:23.975Z,82.88
2022-12-01T01:21:50.517Z,82.84
2022-12-01T01:24:17.294Z,82.33
2022-12-01T01:26:43.760Z,82.46
2022-12-01T01:29:10.349Z,83.02
2022-12-01T01:31:36.856Z,81.91
2022-12-01T01:34:03.817Z,81.79
2022-12-01T01:36:30.933Z,82.61
2022-12-01T01:38:57.403Z,83.31
2022-12-01T01:41:24.725Z,82.50
2022-12-01T01:43:54.982Z,82.56
2022-12-01T01:46:24.260Z,81.94
2022-12-01T01:48:55.134Z,82.57
2022-12-01T01:51:30.648Z,82.19
2022-12-01T01:54:04.110Z,83.06
2022-12-01T01:56:30.938Z,81.79
2022-12-01T01:58:59.165Z,83.08
2022-12-01T02:01:25.620Z,82.98
2022-12-01T02:03:54.403Z,82.60
2022-12-01T02:06:23.957Z,82.82
2022-12-01T02:08:50.788Z,82.85
2022-12-01T02:11:32.834Z,83.02
2022-12-01T02:14:24.983Z,83.65
2022-12-01T02:17:13.250Z,83.19
2022-12-01T02:19:45.804Z,83.07
2022-12-01T02:22:30.013Z,83.67
2022-12-01T02:25:41.312Z,82.90
2022-12-01T02:28:48.168Z,82.36
2022-12-01T02:31:22.588Z,82.60
2022-12-01T02:33:53.059Z,82.55
2022-12-01T02:36:37.963Z,82.16
2022-12-01T02:42:40.034Z,82.50
2022-12-01T02:45:11.929Z,83.04
2022-12-01T02:47:40.994Z,83.07
2022-12-01T02:50:10.075Z,83.00
2022-12-01T02:52:38.437Z,82.53
2022-12-01T02:55:05.194Z,82.81
2022-12-01T02:57:31.676Z,82.99
2022-12-01T02:59:59.919Z,83.50
2022-12-01T03:02:43.846Z,82.99
2022-12-01T03:05:32.901Z,83.16
2022-12-01T03:08:05.193Z,83.01
2022-12-01T03:10:52.138Z,83.54
2022-12-01T03:13:21.511Z,83.20
2022-12-01T03:16:04.414Z,83.51
2022-12-01T03:18:42.345Z,82.95
2022-12-01T03:21:28.279Z,82.81
2022-12-01T03:24:08.722Z,83.42
2022-12-01T03:26:37.441Z,82.40
2022-12-01T03:29:13.492Z,82.65
2022-12-01T03:31:45.891Z,82.31
2022-12-01T03:34:28.301Z,82.93
2022-12-01T03:37:03.912Z,82.17
2022-12-01T03:39:33.423Z,83.37
2022-12-01T03:42:13.415Z,83.26
2022-12-01T03:44:46.256Z,83.15
2022-12-01T03:47:17.275Z,83.36
2022-12-01T03:49:45.660Z,82.92
2022-12-01T03:52:36.983Z,82.37
2022-12-01T03:55:22.562Z,83.28
2022-12-01T03:57:58.277Z,82.63
2022-12-01T04:00:25.130Z,82.65
2022-12-01T04:02:56.813Z,83.03
2022-12-01T04:05:25.437Z,82.24
2022-12-01T04:07:52.422Z,83.07
2022-12-01T04:10:19.086Z,83.02
2022-12-01T04:12:45.620Z,83.09
2022-12-01T04:15:14.326Z,83.01
2022-12-01T04:17:45.089Z,82.60
2022-12-01T04:20:15.881Z,82.71
2022-12-01T04:22:42.365Z,82.50
2022-12-01T04:25:09.762Z,83.29
2022-12-01T04:27:36.720Z,82.94
2022-12-01T04:30:05.346Z,83.43
2022-12-01T04:32:31.766Z,82.98
2022-12-01T04:34:58.211Z,82.72
2022-12-01T04:37:25.009Z,83.14
2022-12-01T04:39:51.815Z,83.18
2022-12-01T04:42:18.475Z,82.35
2022-12-01T04:44:44.929Z,82.88
2022-12-01T04:47:11.347Z,82.34
2022-12-01T04:49:37.819Z,82.16
2022-12-01T04:52:04.496Z,82.72
2022-12-01T04:54:30.929Z,82.65
2022-12-01T04:56:57.387Z,83.47
2022-12-01T04:59:23.923Z,83.54
2022-12-01T05:01:50.506Z,82.85
2022-12-01T05:04:17.011Z,83.21
2022-12-01T05:06:43.560Z,83.32
2022-12-01T05:09:17.127Z,82.76
2022-12-01T05:11:44.740Z,82.54
2022-12-01T05:14:11.195Z,83.23
2022-12-01T05:16:37.699Z,82.13
2022-12-01T05:19:24.898Z,83.80
2022-12-01T05:21:51.970Z,82.67
2022-12-01T05:24:19.712Z,83.16
2022-12-01T05:26:46.231Z,84.04
2022-12-01T05:29:13.689Z,84.12
2022-12-01T05:31:40.225Z,83.81
2022-12-01T05:34:07.522Z,83.84
2022-12-01T05:36:33.996Z,83.19
2022-12-01T05:39:00.434Z,84.03
2022-12-01T05:41:26.899Z,83.52
2022-12-01T05:43:53.344Z,83.54
2022-12-01T05:46:19.907Z,84.10
2022-12-01T05:48:47.197Z,84.11
2022-12-01T05:51:16.155Z,84.39
2022-12-01T05:53:43.439Z,84.46
2022-12-01T05:56:10.042Z,85.33
2022-12-01T05:58:36.521Z,84.83
2022-12-01T06:01:03.935Z,83.81
2022-12-01T06:03:30.521Z,84.83
2022-12-01T06:05:57.002Z,84.48
2022-12-01T06:08:23.515Z,84.30
2022-12-01T06:10:49.995Z,83.48
2022-12-01T06:13:16.550Z,82.92
2022-12-01T06:15:43.106Z,83.04
2022-12-01T06:18:09.548Z,82.62
2022-12-01T06:20:35.986Z,83.49
2022-12-01T06:23:02.483Z,82.57
2022-12-01T06:25:28.945Z,82.50
2022-12-01T06:27:57.386Z,83.12
2022-12-01T06:30:24.339Z,82.62
2022-12-01T06:32:50.818Z,82.59
2022-12-01T06:35:17.259Z,82.88
2022-12-01T06:37:43.707Z,83.50
2022-12-01T06:40:10.942Z,83.47
2022-12-01T06:42:37.366Z,83.78
2022-12-01T06:45:04.067Z,83.64
2022-12-01T06:47:30.800Z,83.52
2022-12-01T06:49:57.337Z,84.01
2022-12-01T06:52:23.824Z,83.54
2022-12-01T06:54:50.281Z,83.16
2022-12-01T06:57:17.139Z,83.59
2022-12-01T06:59:43.882Z,82.96
2022-12-01T07:02:11.493Z,82.59
2022-12-01T07:04:38.013Z,83.52
2022-12-01T07:07:05.626Z,83.70
2022-12-01T07:09:32.073Z,83.63
2022-12-01T07:11:58.489Z,83.58
2022-12-01T07:14:26.713Z,83.60
2022-12-01T07:16:53.427Z,82.72
2022-12-01T07:19:19.995Z,83.20
2022-12-01T07:21:46.437Z,83.45
2022-12-01T07:24:13.171Z,83.42
2022-12-01T07:26:41.085Z,82.71
2022-12-01T07:29:09.246Z,83.30
2022-12-01T07:31:37.057Z,83.29
2022-12-01T07:34:05.053Z,83.38
2022-12-01T07:36:31.575Z,83.47
2022-12-01T07:38:58.099Z,84.05
2022-12-01T07:41:24.572Z,83.32
2022-12-01T07:43:51.131Z,83.52
2022-12-01T07:46:23.052Z,82.45
2022-12-01T07:48:51.503Z,82.69
2022-12-01T07:51:18.097Z,82.80
2022-12-01T07:53:46.433Z,82.43
2022-12-01T07:56:13.769Z,83.19
2022-12-01T07:58:40.620Z,82.82
2022-12-01T08:01:12.741Z,83.23
2022-12-01T08:03:40.128Z,83.12
2022-12-01T08:06:07.805Z,82.95
2022-12-01T08:08:36.050Z,83.45
2022-12-01T08:11:09.666Z,82.31
2022-12-01T08:13:36.286Z,82.62
2022-12-01T08:16:05.231Z,82.92
2022-12-01T08:18:37.844Z,82.83
2022-12-01T08:21:05.608Z,82.54
2022-12-01T08:23:32.100Z,82.94
2022-12-01T08:26:03.056Z,82.81
2022-12-01T08:28:29.819Z,82.76
2022-12-01T08:30:56.606Z,82.63
2022-12-01T08:33:23.615Z,82.03
2022-12-01T08:35:50.062Z,82.21
2022-12-01T08:38:16.908Z,82.35
2022-12-01T08:40:43.346Z,81.47
2022-12-01T08:43:15.211Z,82.36
2022-12-01T08:45:49.453Z,82.38
2022-12-01T08:48:15.892Z,81.92
2022-12-01T08:50:42.324Z,81.28
2022-12-01T08:53:08.755Z,81.75
2022-12-01T08:55:35.232Z,82.06
2022-12-01T08:58:01.645Z,82.65
2022-12-01T09:00:28.761Z,81.92
2022-12-01T09:02:55.299Z,82.99
2022-12-01T09:05:21.814Z,82.73
2022-12-01T09:08:08.302Z,82.02
2022-12-01T09:10:34.753Z,82.01
2022-12-01T09:13:01.211Z,82.21
2022-12-01T09:15:27.657Z,82.75
2022-12-01T09:17:54.103Z,83.00
2022-12-01T09:20:20.678Z,82.42
2022-12-01T09:22:47.136Z,83.09
2022-12-01T09:25:14.720Z,82.56
2022-12-01T09:27:41.233Z,82.64
2022-12-01T09:30:08.309Z,81.85
2022-12-01T09:32:34.724Z,82.18
2022-12-01T09:35:01.150Z,81.93
2022-12-01T09:37:27.581Z,82.32
2022-12-01T09:39:54.025Z,82.27
2022-12-01T09:42:32.245Z,81.79
2022-12-01T09:45:02.681Z,81.96
2022-12-01T09:47:33.097Z,81.29
2022-12-01T09:50:23.980Z,81.82
2022-12-01T09:53:15.417Z,81.65
2022-12-01T09:55:42.345Z,81.46
2022-12-01T09:58:18.036Z,81.81
2022-12-01T10:00:46.922Z,81.99
2022-12-01T10:03:40.455Z,82.73
2022-12-01T10:06:27.103Z,82.51
2022-12-01T10:09:13.102Z,82.39
2022-12-01T10:11:42.606Z,82.15
2022-12-01T10:14:19.774Z,81.74
2022-12-01T10:17:39.700Z,82.26
2022-12-01T10:20:20.698Z,81.49
2022-12-01T10:23:02.531Z,81.71
2022-12-01T10:25:42.224Z,81.58
2022-12-01T10:28:36.919Z,81.96
2022-12-01T10:31:34.488Z,81.85
2022-12-01T10:34:07.872Z,80.99
2022-12-01T10:36:34.734Z,81.43
2022-12-01T10:39:04.601Z,81.52
2022-12-01T10:41:35.631Z,80.94
2022-12-01T10:44:05.486Z,81.18
2022-12-01T10:46:52.403Z,80.71
2022-12-01T10:49:19.806Z,81.73
2022-12-01T10:52:06.995Z,81.84
2022-12-01T10:54:36.994Z,80.96
2022-12-01T10:57:05.300Z,81.16
2022-12-01T10:59:37.817Z,81.79
2022-12-01T11:02:14.781Z,81.08
2022-12-01T11:05:02.705Z,81.88
2022-12-01T11:07:33.438Z,80.92
2022-12-01T11:10:14.438Z,80.43
2022-12-01T11:12:43.036Z,81.20
2022-12-01T11:15:20.896Z,82.01
2022-12-01T11:17:47.579Z,82.13
2022-12-01T11:20:27.994Z,81.40
2022-12-01T11:23:09.582Z,81.25
2022-12-01T11:25:36.694Z,81.20
2022-12-01T11:28:04.440Z,80.66
2022-12-01T11:30:32.695Z,81.58
2022-12-01T11:33:02.023Z,81.34
2022-12-01T11:35:32.080Z,81.17
2022-12-01T11:40:56.380Z,81.80
2022-12-01T11:43:30.586Z,82.30
2022-12-01T11:45:59.641Z,82.47
2022-12-01T11:48:27.550Z,82.24
2022-12-01T11:51:07.292Z,81.73
2022-12-01T11:53:37.326Z,81.58
2022-12-01T11:56:14.894Z,81.77
2022-12-01T11:58:43.008Z,81.39
2022-12-01T12:01:22.186Z,81.20
2022-12-01T12:03:54.066Z,81.75
2022-12-01T12:06:42.478Z,81.66
2022-12-01T12:12:46.818Z,82.20
2022-12-01T12:15:44.573Z,81.63
2022-12-01T12:18:25.244Z,81.29
2022-12-01T12:21:19.662Z,80.89
2022-12-01T12:24:13.441Z,80.32
2022-12-01T12:26:50.074Z,81.60
2022-12-01T12:29:45.570Z,81.30
2022-12-01T12:32:46.080Z,82.13
2022-12-01T12:35:36.287Z,81.29
2022-12-01T12:38:38.256Z,82.35
2022-12-01T12:41:30.784Z,81.15
2022-12-01T12:44:22.751Z,81.65
2022-12-01T12:47:21.601Z,82.09
2022-12-01T12:50:00.264Z,82.63
2022-12-01T12:52:33.526Z,82.08
2022-12-01T12:55:15.413Z,82.22
2022-12-01T12:58:29.075Z,82.06
2022-12-01T13:01:03.505Z,82.05
2022-12-01T13:03:45.287Z,81.63
2022-12-01T13:06:19.676Z,82.13
2022-12-01T13:08:53.370Z,81.81
2022-12-01T13:11:46.088Z,82.08
2022-12-01T13:14:33.038Z,81.48
2022-12-01T13:17:15.697Z,81.18
2022-12-01T13:19:42.833Z,81.45
2022-12-01T13:22:12.483Z,80.83
2022-12-01T13:24:39.230Z,81.11
2022-12-01T13:27:13.068Z,81.15
2022-12-01T13:29:46.154Z,81.29
2022-12-01T13:32:36.758Z,80.40
2022-12-01T13:35:06.450Z,80.92
2022-12-01T13:37:35.591Z,81.58
2022-12-01T13:40:22.876Z,80.92
2022-12-01T13:43:10.637Z,80.95
2022-12-01T13:45:40.119Z,81.50
2022-12-01T13:48:47.959Z,82.06
2022-12-01T13:51:14.825Z,82.46
2022-12-01T13:54:05.347Z,81.98
2022-12-01T13:56:46.653Z,80.89
2022-12-01T13:59:41.192Z,81.25
2022-12-01T14:02:17.761Z,82.14
2022-12-01T14:04:44.423Z,82.16
2022-12-01T14:07:34.112Z,81.78
2022-12-01T14:10:22.545Z,81.65
2022-12-01T14:12:50.224Z,81.68
2022-12-01T14:15:33.728Z,81.21
2022-12-01T14:18:05.512Z,80.60
2022-12-01T14:20:37.791Z,81.51
2022-12-01T14:23:28.928Z,81.00
2022-12-01T14:26:19.451Z,81.16
2022-12-01T14:28:55.067Z,81.21
2022-12-01T14:31:33.729Z,81.85
2022-12-01T14:34:19.357Z,80.77
2022-12-01T14:36:56.789Z,80.76
2022-12-01T14:39:27.064Z,82.12
2022-12-01T14:41:58.532Z,82.18
2022-12-01T14:44:44.683Z,81.39
2022-12-01T14:47:20.867Z,81.09
2022-12-01T14:49:50.817Z,81.62
2022-12-01T14:52:39.783Z,81.31
2022-12-01T14:55:29.530Z,80.91
2022-12-01T14:58:05.059Z,81.32
2022-12-01T15:00:36.433Z,81.15
2022-12-01T15:03:09.646Z,80.86
2022-12-01T15:05:41.908Z,80.38
2022-12-01T15:11:21.393Z,82.06
2022-12-01T15:13:56.247Z,82.01
2022-12-01T15:16:29.222Z,81.52
2022-12-01T15:18:56.265Z,80.75
2022-12-01T15:21:31.822Z,81.32
2022-12-01T15:24:04.378Z,81.84
2022-12-01T15:26:32.273Z,82.00
2022-12-01T15:29:31.222Z,80.81
2022-12-01T15:32:04.714Z,81.82
2022-12-01T15:34:35.004Z,81.61
2022-12-01T15:37:05.343Z,81.32
2022-12-01T15:40:11.907Z,81.37
2022-12-01T15:42:43.893Z,82.17
2022-12-01T15:45:21.261Z,82.09
2022-12-01T15:47:50.006Z,81.65
2022-12-01T15:50:30.982Z,82.03
2022-12-01T15:52:58.647Z,81.53
2022-12-01T15:55:32.609Z,82.36
2022-12-01T15:58:00.269Z,82.22
2022-12-01T16:00:27.048Z,82.25
2022-12-01T16:02:56.572Z,82.30
2022-12-01T16:05:29.944Z,82.45
2022-12-01T16:08:13.502Z,82.85
2022-12-01T16:10:40.520Z,83.27
2022-12-01T16:13:35.654Z,82.79
2022-12-01T16:16:23.068Z,82.31
2022-12-01T16:18:55.795Z,82.86
2022-12-01T16:21:22.917Z,82.65
2022-12-01T16:24:01.095Z,82.60
2022-12-01T16:26:28.440Z,82.41
2022-12-01T16:28:55.686Z,82.74
2022-12-01T16:31:22.635Z,81.96
2022-12-01T16:34:00.316Z,82.32
2022-12-01T16:36:27.155Z,82.06
2022-12-01T16:38:53.637Z,81.71
2022-12-01T16:41:36.383Z,81.92
2022-12-01T16:44:27.590Z,82.26
2022-12-01T16:46:52.574Z,81.93
2022-12-01T16:49:19.038Z,82.14
2022-12-01T16:52:11.114Z,81.98
2022-12-01T16:54:31.940Z,81.23
2022-12-01T16:56:58.371Z,82.02
2022-12-01T16:59:25.261Z,81.25
2022-12-01T17:01:51.747Z,81.53
2022-12-01T17:04:18.344Z,82.09
2022-12-01T17:06:44.784Z,81.81
2022-12-01T17:09:11.263Z,82.17
2022-12-01T17:11:37.699Z,81.47
2022-12-01T17:14:04.211Z,81.69
2022-12-01T17:16:30.735Z,81.23
2022-12-01T17:18:57.247Z,81.21
2022-12-01T17:21:23.740Z,81.62
2022-12-01T17:23:50.174Z,81.31
2022-12-01T17:26:18.989Z,81.05
2022-12-01T17:28:46.728Z,81.70
2022-12-01T17:31:13.850Z,81.38
2022-12-01T17:33:41.062Z,81.79
2022-12-01T17:36:11.265Z,81.92
2022-12-01T17:38:39.331Z,81.58
2022-12-01T17:41:09.101Z,81.09
2022-12-01T17:43:37.389Z,81.21
2022-12-01T17:46:05.701Z,81.59
2022-12-01T17:48:40.828Z,81.84
2022-12-01T17:51:08.887Z,81.89
2022-12-01T17:53:36.086Z,81.77
2022-12-01T17:56:02.704Z,81.36
2022-12-01T17:58:30.201Z,81.04
2022-12-01T18:00:56.633Z,81.64
2022-12-01T18:03:23.127Z,81.44
2022-12-01T18:05:57.147Z,81.04
2022-12-01T18:08:25.692Z,80.82
2022-12-01T18:10:52.915Z,81.07
2022-12-01T18:13:21.455Z,81.10
2022-12-01T18:15:48.810Z,81.03
2022-12-01T18:18:15.518Z,81.02
2022-12-01T18:20:43.645Z,81.63
2022-12-01T18:23:11.142Z,81.34
2022-12-01T18:25:38.946Z,82.13
2022-12-01T18:28:06.136Z,82.21
2022-12-01T18:30:33.612Z,82.52
2022-12-01T18:33:01.001Z,82.25
2022-12-01T18:35:31.803Z,82.75
2022-12-01T18:37:58.699Z,81.70
2022-12-01T18:40:26.019Z,83.06
2022-12-01T18:42:52.443Z,82.01
2022-12-01T18:45:21.499Z,82.21
2022-12-01T18:47:48.144Z,82.91
2022-12-01T18:50:14.937Z,82.63
2022-12-01T18:52:41.556Z,82.75
2022-12-01T18:55:08.757Z,82.07
2022-12-01T18:57:35.554Z,82.54
2022-12-01T19:00:04.673Z,82.29
2022-12-01T19:02:31.211Z,83.05
2022-12-01T19:04:57.750Z,83.85
2022-12-01T19:07:29.530Z,83.45
2022-12-01T19:09:56.339Z,82.80
2022-12-01T19:12:24.411Z,82.80
2022-12-01T19:14:52.949Z,83.22
2022-12-01T19:17:19.947Z,83.77
2022-12-01T19:19:47.368Z,83.43
2022-12-01T19:22:14.023Z,83.77
2022-12-01T19:24:40.477Z,83.25
2022-12-01T19:27:07.124Z,83.80
2022-12-01T19:29:33.672Z,83.55
2022-12-01T19:32:00.614Z,83.34
2022-12-01T19:34:27.491Z,84.38
2022-12-01T19:36:56.804Z,84.52
2022-12-01T19:39:23.973Z,83.96
2022-12-01T19:41:51.965Z,84.24
2022-12-01T19:44:18.665Z,84.67
2022-12-01T19:46:45.402Z,84.28
2022-12-01T19:49:11.874Z,83.65
2022-12-01T19:51:39.523Z,83.25
2022-12-01T19:54:15.421Z,82.99
2022-12-01T19:56:42.669Z,83.27
2022-12-01T19:59:11.209Z,83.50
2022-12-01T20:01:38.011Z,83.68
2022-12-01T20:04:04.625Z,84.35
2022-12-01T20:06:33.340Z,84.44
2022-12-01T20:09:02.021Z,84.27
2022-12-01T20:11:29.848Z,83.79
2022-12-01T20:13:56.693Z,83.51
2022-12-01T20:16:24.584Z,83.62
2022-12-01T20:18:52.210Z,83.79
2022-12-01T20:21:24.208Z,83.28
2022-12-01T20:24:04.566Z,83.87
2022-12-01T20:26:37.298Z,84.31
2022-12-01T20:29:08.195Z,84.71
2022-12-01T20:31:35.344Z,84.40
2022-12-01T20:34:04.947Z,84.55
2022-12-01T20:36:31.521Z,84.17
2022-12-01T20:38:58.031Z,83.46
2022-12-01T20:41:24.471Z,83.46
2022-12-01T20:43:50.927Z,83.74
2022-12-01T20:46:17.473Z,83.51
2022-12-01T20:48:44.072Z,83.86
2022-12-01T20:51:13.939Z,83.38
2022-12-01T20:53:42.436Z,83.56
2022-12-01T20:56:17.190Z,83.63
2022-12-01T20:58:43.717Z,83.52
2022-12-01T21:01:12.657Z,83.29
2022-12-01T21:03:41.977Z,83.12
2022-12-01T21:06:09.961Z,83.35
2022-12-01T21:08:41.638Z,83.43
2022-12-01T21:11:48.021Z,83.30
2022-12-01T21:14:35.174Z,83.24
2022-12-01T21:17:11.080Z,82.96
2022-12-01T21:19:53.315Z,83.12
2022-12-01T21:22:20.129Z,82.79
2022-12-01T21:24:51.062Z,83.97
2022-12-01T21:27:18.204Z,83.43
2022-12-01T21:29:47.617Z,83.42
2022-12-01T21:32:26.939Z,83.46
2022-12-01T21:34:55.529Z,83.57
2022-12-01T21:37:24.582Z,83.24
2022-12-01T21:39:52.928Z,83.93
2022-12-01T21:42:22.146Z,83.37
2022-12-01T21:44:49.205Z,83.58
2022-12-01T21:47:20.257Z,83.11
2022-12-01T21:49:50.594Z,83.76
2022-12-01T21:52:20.142Z,84.26
2022-12-01T21:54:47.062Z,84.48
2022-12-01T21:57:47.309Z,84.39
2022-12-01T22:00:25.663Z,83.88
2022-12-01T22:03:30.943Z,84.49
2022-12-01T22:06:29.907Z,85.25
2022-12-01T22:09:11.588Z,85.63
2022-12-01T22:11:38.050Z,84.92
2022-12-01T22:14:21.831Z,85.49
2022-12-01T22:16:56.225Z,85.24
2022-12-01T22:19:27.657Z,85.89
2022-12-01T22:22:09.319Z,85.50
2022-12-01T22:24:49.574Z,86.08
2022-12-01T22:27:26.922Z,86.00
2022-12-01T22:30:19.478Z,85.70
2022-12-01T22:33:05.460Z,86.02
2022-12-01T22:35:44.978Z,86.41
2022-12-01T22:38:20.765Z,86.01
2022-12-01T22:41:26.600Z,85.90
2022-12-01T22:44:00.467Z,86.17
2022-12-01T22:46:33.782Z,85.86
2022-12-01T22:49:08.046Z,85.90
2022-12-01T22:51:56.875Z,85.95
2022-12-01T22:54:34.823Z,85.98
2022-12-01T22:57:14.801Z,85.03
2022-12-01T22:59:44.617Z,85.33
2022-12-01T23:02:23.473Z,84.63
2022-12-01T23:04:55.753Z,85.03
2022-12-01T23:07:36.820Z,85.33
2022-12-01T23:10:17.044Z,85.16
2022-12-01T23:12:45.233Z,85.40
2022-12-01T23:15:27.255Z,85.38
2022-12-01T23:17:53.873Z,85.11
2022-12-01T23:20:20.268Z,84.79
2022-12-01T23:22:47.499Z,85.29
2022-12-01T23:25:18.155Z,85.26
2022-12-01T23:27:51.045Z,85.63
2022-12-01T23:30:19.357Z,85.61
2022-12-01T23:32:55.699Z,86.00
2022-12-01T23:35:22.138Z,86.12
2022-12-01T23:37:48.602Z,85.79
2022-12-01T23:40:20.516Z,86.35
2022-12-01T23:42:47.470Z,86.62
2022-12-01T23:45:19.293Z,86.09
2022-12-01T23:47:46.028Z,85.40
2022-12-01T23:50:24.694Z,85.24
2022-12-01T23:52:51.762Z,86.04
2022-12-01T23:55:23.047Z,85.29
2022-12-01T23:57:49.987Z,86.34
